< < Back
Terminal Aerodrome Forecast


Current Version              Previous Versions:   1  2  3  4  5  6  7  8  9  

Terminal Aerodrome Forecast

900
FTUS44 KOHX 291100
TAFCSV
TAF
KCSV 291126Z 2912/3012 33004KT 6SM BR SCT007 BKN030
      TEMPO 2912/2914 3SM BR BKN007
     FM291600 34012KT P6SM SCT035=



Latest METAR

650
SAUS70 KWBC 291500 RRI
MTRCSV
METAR KCSV 291453Z AUTO 32008KT 10SM BKN029 BKN038 19/12 A3009 RMK AO2
SLP175 T01940122 53008


USA.gov is the U.S. government's official web portal to all federal, state and local government web resources and services.